Terminal Aerodrome Forecast
Issued by NWS

Home | Current Version | Previous Version | Text Only | Print | Product List | Glossary On
Versions: 1 2 3 4 5 6 7 8 9 10 11 12 13 14 15
000
FTAK31 PAFA 211730
TAFAMC
TAF
PAMC 211730Z 2118/2218 27003KT P6SM FEW050 BKN100
     FM212200 01006KT P6SM SCT050 BKN100 BKN200
     FM220200 02006KT P6SM -SHRA VCTS SCT025 BKN050CB OVC090
     FM220600 30004KT P6SM VCSH FEW025 BKN050 OVC090=

USA.gov is the U.S. government's official web portal to all federal, state and local government web resources and services.